createdAt,value
2018-08-28T00:00:01.792Z,15.77
2018-08-28T00:05:02.206Z,15.81
2018-08-28T00:10:01.649Z,15.82
2018-08-28T00:15:02.024Z,15.88
2018-08-28T00:20:01.409Z,15.93
2018-08-28T00:25:01.765Z,15.98
2018-08-28T00:30:02.033Z,16
2018-08-28T00:35:01.343Z,16.04
2018-08-28T00:40:01.743Z,16.05
2018-08-28T00:45:02.036Z,16.04
2018-08-28T00:50:01.389Z,15.97
2018-08-28T00:55:01.815Z,15.97
2018-08-28T01:00:01.387Z,15.91
2018-08-28T01:05:01.865Z,15.91
2018-08-28T01:10:01.299Z,15.86
2018-08-28T01:15:01.562Z,15.84
2018-08-28T01:20:01.831Z,15.77
2018-08-28T01:25:01.251Z,15.74
2018-08-28T01:30:01.528Z,15.7
2018-08-28T01:35:01.890Z,15.66
2018-08-28T01:40:01.293Z,15.61
2018-08-28T01:45:01.625Z,15.55
2018-08-28T01:50:01.930Z,15.49
2018-08-28T01:55:01.384Z,15.45
2018-08-28T02:00:01.758Z,15.38
2018-08-28T02:05:02.160Z,15.3
2018-08-28T02:10:01.539Z,15.15
2018-08-28T02:15:01.801Z,15.07
2018-08-28T02:20:01.589Z,14.95
2018-08-28T02:25:02.015Z,14.78
2018-08-28T02:30:01.535Z,14.64
2018-08-28T02:35:01.988Z,14.53
2018-08-28T02:40:02.155Z,14.45
2018-08-28T02:45:01.584Z,14.45
2018-08-28T02:50:01.918Z,14.41
2018-08-28T02:55:01.280Z,14.4
2018-08-28T03:00:01.537Z,14.7
2018-08-28T03:05:01.932Z,14.83
2018-08-28T03:10:01.191Z,14.86
2018-08-28T03:15:01.474Z,14.84
2018-08-28T03:20:01.913Z,14.82
2018-08-28T03:25:01.275Z,14.83
2018-08-28T03:30:01.571Z,14.85
2018-08-28T03:35:01.848Z,14.86
2018-08-28T03:40:01.232Z,14.86
2018-08-28T03:45:01.479Z,14.81
2018-08-28T03:50:01.807Z,14.82
2018-08-28T03:55:01.155Z,14.67
2018-08-28T04:00:01.378Z,14.59
2018-08-28T04:05:01.727Z,14.43
2018-08-28T04:10:01.075Z,14.3
2018-08-28T04:15:01.339Z,14.05
2018-08-28T04:20:01.717Z,13.8
2018-08-28T04:25:01.132Z,13.64
2018-08-28T04:30:01.444Z,13.43
2018-08-28T04:35:01.895Z,13.29
2018-08-28T04:40:01.257Z,13.27
2018-08-28T04:45:01.576Z,13.31
2018-08-28T04:50:01.929Z,13.25
2018-08-28T04:55:01.387Z,13.21
2018-08-28T05:00:01.160Z,13.17
2018-08-28T05:05:01.423Z,13.17
2018-08-28T05:10:01.772Z,13.21
2018-08-28T05:15:02.016Z,13.23
2018-08-28T05:20:01.296Z,13.25
2018-08-28T05:25:01.642Z,13.33
2018-08-28T05:30:01.937Z,13.47
2018-08-28T05:35:01.222Z,13.64
2018-08-28T05:40:01.510Z,13.83
2018-08-28T05:45:01.757Z,13.95
2018-08-28T05:50:02.010Z,14.12
2018-08-28T05:55:01.430Z,14.33
2018-08-28T06:00:01.805Z,14.5
2018-08-28T06:05:01.095Z,14.63
2018-08-28T06:10:01.385Z,14.88
2018-08-28T06:15:01.693Z,15.18
2018-08-28T06:20:02.104Z,15.43
2018-08-28T06:25:01.564Z,15.76
2018-08-28T06:30:01.847Z,16.12
2018-08-28T06:35:01.141Z,16.47
2018-08-28T06:40:01.412Z,16.85
2018-08-28T06:45:01.778Z,17.05
2018-08-28T06:50:02.099Z,17.18
2018-08-28T06:55:01.477Z,17.3
2018-08-28T07:00:01.790Z,17.52
2018-08-28T07:05:01.128Z,17.69
2018-08-28T07:10:01.374Z,17.49
2018-08-28T07:15:01.725Z,17.83
2018-08-28T07:20:02.053Z,17.65
2018-08-28T07:25:01.465Z,17.52
2018-08-28T07:30:01.830Z,17.68
2018-08-28T07:35:01.105Z,17.82
2018-08-28T07:40:01.348Z,18.19
2018-08-28T07:45:01.708Z,18.4
2018-08-28T07:50:02.021Z,18.39
2018-08-28T07:55:01.436Z,19.07
2018-08-28T08:00:01.785Z,18.48
2018-08-28T08:05:02.122Z,18.8
2018-08-28T08:10:01.509Z,19.24
2018-08-28T08:15:01.831Z,19.24
2018-08-28T08:20:01.109Z,18.58
2018-08-28T08:25:01.382Z,17.93
2018-08-28T08:30:01.743Z,17.91
2018-08-28T08:35:02.103Z,17.77
2018-08-28T08:40:01.537Z,17.85
2018-08-28T08:45:01.929Z,17.8
2018-08-28T08:50:01.274Z,17.81
2018-08-28T08:55:01.626Z,17.94
2018-08-28T09:00:01.382Z,18.03
2018-08-28T09:05:01.790Z,18.09
2018-08-28T09:10:01.214Z,18.06
2018-08-28T09:15:01.508Z,18.15
2018-08-28T09:20:01.856Z,18.17
2018-08-28T09:25:01.083Z,18.15
2018-08-28T09:30:01.317Z,18.3
2018-08-28T09:35:01.767Z,18.09
2018-08-28T09:40:01.133Z,18.19
2018-08-28T09:45:01.393Z,18.35
2018-08-28T09:50:01.799Z,18.56
2018-08-28T09:55:01.154Z,18.86
2018-08-28T10:00:01.394Z,19.16
2018-08-28T10:05:01.784Z,19.27
2018-08-28T10:10:01.153Z,19.29
2018-08-28T10:15:01.402Z,19.87
2018-08-28T10:20:01.796Z,20.1
2018-08-28T10:25:02.081Z,20.07
2018-08-28T10:30:01.515Z,20.46
2018-08-28T10:35:01.919Z,20.27
2018-08-28T10:40:01.268Z,20.12
2018-08-28T10:45:01.574Z,20.99
2018-08-28T10:50:01.916Z,21.23
2018-08-28T10:55:01.342Z,21.8
2018-08-28T11:00:01.614Z,21.81
2018-08-28T11:05:01.982Z,21.9
2018-08-28T11:10:01.417Z,21.59
2018-08-28T11:15:01.746Z,21.23
2018-08-28T11:20:01.111Z,21.6
2018-08-28T11:25:01.393Z,21.7
2018-08-28T11:30:01.789Z,21.23
2018-08-28T11:35:01.113Z,21.25
2018-08-28T11:40:01.366Z,21.35
2018-08-28T11:45:01.642Z,21.54
2018-08-28T11:50:01.904Z,21.68
2018-08-28T11:55:01.168Z,21.8
2018-08-28T12:00:01.452Z,22.19
2018-08-28T12:05:01.904Z,22.22
2018-08-28T12:10:01.519Z,22.14
2018-08-28T12:15:01.751Z,21.79
2018-08-28T12:20:01.996Z,21.88
2018-08-28T12:25:01.257Z,21.96
2018-08-28T12:30:01.491Z,21.98
2018-08-28T12:35:01.724Z,22.27
2018-08-28T12:40:01.990Z,22.09
2018-08-28T12:45:01.234Z,22.34
2018-08-28T12:50:01.458Z,22.54
2018-08-28T12:55:01.794Z,22.41
2018-08-28T13:00:01.515Z,22.32
2018-08-28T13:05:01.772Z,22.47
2018-08-28T13:10:02.017Z,22.48
2018-08-28T13:15:01.252Z,22.46
2018-08-28T13:20:02.066Z,22.09
2018-08-28T13:25:01.350Z,22.35
2018-08-28T13:30:01.584Z,22.77
2018-08-28T13:35:01.835Z,22.87
2018-08-28T13:40:01.070Z,22.81
2018-08-28T13:45:01.364Z,23
2018-08-28T13:50:01.729Z,23.21
2018-08-28T13:55:01.972Z,23.13
2018-08-28T14:00:01.324Z,23.21
2018-08-28T14:05:01.940Z,23.18
2018-08-28T14:10:01.169Z,23.17
2018-08-28T14:15:01.568Z,23.1
2018-08-28T14:20:01.418Z,23.22
2018-08-28T14:25:01.681Z,23.41
2018-08-28T14:30:01.911Z,23.37
2018-08-28T14:35:01.158Z,23.58
2018-08-28T14:40:01.415Z,23.59
2018-08-28T14:45:01.701Z,23.7
2018-08-28T14:50:02.153Z,23.54
2018-08-28T14:55:01.825Z,23.67
2018-08-28T15:00:01.185Z,23.75
2018-08-28T15:05:01.510Z,23.73
2018-08-28T15:10:01.771Z,23.7
2018-08-28T15:15:02.010Z,23.72
2018-08-28T15:20:01.260Z,23.69
2018-08-28T15:25:01.533Z,23.74
2018-08-28T15:30:01.780Z,23.71
2018-08-28T15:35:01.073Z,23.76
2018-08-28T15:40:01.316Z,23.7
2018-08-28T15:45:01.615Z,23.79
2018-08-28T15:50:01.861Z,23.83
2018-08-28T15:55:01.106Z,23.79
2018-08-28T16:00:01.331Z,23.83
2018-08-28T16:05:01.598Z,23.83
2018-08-28T16:10:01.827Z,23.88
2018-08-28T16:15:02.052Z,23.85
2018-08-28T16:20:01.305Z,23.82
2018-08-28T16:25:01.584Z,23.74
2018-08-28T16:30:01.817Z,23.75
2018-08-28T16:35:01.071Z,23.81
2018-08-28T16:40:01.309Z,23.74
2018-08-28T16:45:01.567Z,23.67
2018-08-28T16:50:01.834Z,23.64
2018-08-28T16:55:01.279Z,23.56
2018-08-28T17:00:01.510Z,23.51
2018-08-28T17:05:01.810Z,23.45
2018-08-28T17:10:02.061Z,23.37
2018-08-28T17:15:01.306Z,23.29
2018-08-28T17:20:01.872Z,23.24
2018-08-28T17:25:01.146Z,23.22
2018-08-28T17:30:01.389Z,23.12
2018-08-28T17:35:01.621Z,23.02
2018-08-28T17:40:01.841Z,22.91
2018-08-28T17:45:01.153Z,22.75
2018-08-28T17:50:01.415Z,22.63
2018-08-28T17:55:01.634Z,22.49
2018-08-28T18:00:01.859Z,22.33
2018-08-28T18:05:01.125Z,22.16
2018-08-28T18:10:01.407Z,22.02
2018-08-28T18:15:01.631Z,21.84
2018-08-28T18:20:01.881Z,21.67
2018-08-28T18:25:01.218Z,21.57
2018-08-28T18:30:01.478Z,21.44
2018-08-28T18:35:01.732Z,21.39
2018-08-28T18:40:02.024Z,21.21
2018-08-28T18:45:01.242Z,21.11
2018-08-28T18:50:01.474Z,20.95
2018-08-28T18:55:01.703Z,20.84
2018-08-28T19:00:01.934Z,20.74
2018-08-28T19:05:01.206Z,20.59
2018-08-28T19:10:01.451Z,20.47
2018-08-28T19:15:01.716Z,20.43
2018-08-28T19:20:01.957Z,20.37
2018-08-28T19:25:01.199Z,20.31
2018-08-28T19:30:01.442Z,20.22
2018-08-28T19:35:01.761Z,20.17
2018-08-28T19:40:01.134Z,20.11
2018-08-28T19:45:01.374Z,20.05
2018-08-28T19:50:01.717Z,19.97
2018-08-28T19:55:02.063Z,19.83
2018-08-28T20:00:01.325Z,19.75
2018-08-28T20:05:01.685Z,19.65
2018-08-28T20:10:02.054Z,19.54
2018-08-28T20:15:01.670Z,19.4
2018-08-28T20:20:01.923Z,19.4
2018-08-28T20:25:01.192Z,19.41
2018-08-28T20:30:01.422Z,19.41
2018-08-28T20:35:01.796Z,19.36
2018-08-28T20:40:01.185Z,19.23
2018-08-28T20:45:01.462Z,19.07
2018-08-28T20:50:01.807Z,18.92
2018-08-28T20:55:01.179Z,18.8
2018-08-28T21:00:01.414Z,18.79
2018-08-28T21:05:01.763Z,18.76
2018-08-28T21:10:01.092Z,18.76
2018-08-28T21:15:01.332Z,18.7
2018-08-28T21:20:01.730Z,18.61
2018-08-28T21:25:02.093Z,18.52
2018-08-28T21:30:01.322Z,18.44
2018-08-28T21:35:01.738Z,18.37
2018-08-28T21:40:02.071Z,18.26
2018-08-28T21:45:01.326Z,18.13
2018-08-28T21:50:01.701Z,18.11
2018-08-28T21:55:02.072Z,18.05
2018-08-28T22:00:01.306Z,17.94
2018-08-28T22:05:01.709Z,17.89
2018-08-28T22:10:02.059Z,17.87
2018-08-28T22:15:01.298Z,17.82
2018-08-28T22:20:01.712Z,17.79
2018-08-28T22:25:01.088Z,17.7
2018-08-28T22:30:01.355Z,17.58
2018-08-28T22:35:01.830Z,17.52
2018-08-28T22:40:01.192Z,17.46
2018-08-28T22:45:01.467Z,17.35
2018-08-28T22:50:01.819Z,17.28
2018-08-28T22:55:01.130Z,17.24
2018-08-28T23:00:01.368Z,17.22
2018-08-28T23:05:01.797Z,17.15
2018-08-28T23:10:01.138Z,17.09
2018-08-28T23:15:01.374Z,17.04
2018-08-28T23:20:01.796Z,17.04
2018-08-28T23:25:01.136Z,17.04
2018-08-28T23:30:01.388Z,17.03
2018-08-28T23:35:01.792Z,17.03
2018-08-28T23:40:01.196Z,17.06
2018-08-28T23:45:01.450Z,17.07
2018-08-28T23:50:01.802Z,17.13
2018-08-28T23:55:01.183Z,17.18
